Etusivu
METAR-TAF:

METAR-TAF

Lentoasemat :

Hearne Municipal Airport

Hearne, Texas, Yhdysvallat

Leveyspiiri: 30-52-18N, Pituuspiiri: 096-37-20W, korkeus merenpinnasta: 87 m

Tämänhetkinen sää

Tämä raportti tehtiin 15 minuuttia sitten, kello 10.55 UTC
tyyntä
Lämpötila 7°C
Kosteus 100%
Ilmanpaine 1019 hPa
Näkyvyys: 16.1 km
selkeää

METAR: KLHB 201055Z AUTO 00000KT 10SM CLR 07/07 A3010 RMK AO2 T00670067

Aika: 06:10 (11:10 UTC)


TAF: puuttuu

Säähavainnot ja -ennusteet yli 4000 lentoasemalta (METAR- ja TAF-raportit).

Käytössä olevat sääasemat on merkitty karttaan keltaisilla ja punaisilla pisteillä.

Aseta hiiri pisteen päälle nähdäksesi sääaseman nimen.

Klikkaa sitten nähdäksesi säähavainnot ja -ennusteet.

Kartan vaihtaminen: klikkaa mustalla rastilla varustettuja vihreitä pisteitä, niin voit zoomata sisään; viivalla varustettua vihreää pistettä, niin voit zoomata ulos tai vihreitä nuolia, niin pääset viereisille kartoille.


METAR-TAF: